createdAt,value
2023-01-02T00:01:28.316Z,18.51
2023-01-02T00:03:57.615Z,18.48
2023-01-02T00:06:26.167Z,18.48
2023-01-02T00:08:54.279Z,18.45
2023-01-02T00:11:22.681Z,18.43
2023-01-02T00:13:52.138Z,18.43
2023-01-02T00:16:20.299Z,18.41
2023-01-02T00:18:48.723Z,18.45
2023-01-02T00:21:16.997Z,18.48
2023-01-02T00:23:46.205Z,18.48
2023-01-02T00:26:14.684Z,18.53
2023-01-02T00:28:42.929Z,18.58
2023-01-02T00:31:14.012Z,18.58
2023-01-02T00:33:42.907Z,18.62
2023-01-02T00:36:12.972Z,18.66
2023-01-02T00:38:42.016Z,18.61
2023-01-02T00:41:10.546Z,18.61
2023-01-02T00:43:40.040Z,18.62
2023-01-02T00:46:11.871Z,18.70
2023-01-02T00:48:42.320Z,18.62
2023-01-02T00:51:10.467Z,18.56
2023-01-02T00:53:38.593Z,18.61
2023-01-02T00:56:07.776Z,18.68
2023-01-02T00:58:36.492Z,18.70
2023-01-02T01:01:04.879Z,18.64
2023-01-02T01:03:33.364Z,18.61
2023-01-02T01:06:08.987Z,18.75
2023-01-02T01:08:38.379Z,18.72
2023-01-02T01:11:07.516Z,18.77
2023-01-02T01:13:35.738Z,18.77
2023-01-02T01:16:09.305Z,18.88
2023-01-02T01:18:38.068Z,18.84
2023-01-02T01:21:12.556Z,18.89
2023-01-02T01:23:40.757Z,18.97
2023-01-02T01:26:12.955Z,18.99
2023-01-02T01:28:41.531Z,18.94
2023-01-02T01:31:12.332Z,19.02
2023-01-02T01:33:41.387Z,18.97
2023-01-02T01:36:13.766Z,18.98
2023-01-02T01:38:42.563Z,18.92
2023-01-02T01:41:12.242Z,18.95
2023-01-02T01:43:43.292Z,18.94
2023-01-02T01:46:21.553Z,18.96
2023-01-02T01:48:53.018Z,18.89
2023-01-02T01:51:24.611Z,18.93
2023-01-02T01:53:55.042Z,18.99
2023-01-02T01:56:23.556Z,18.95
2023-01-02T01:58:52.543Z,18.98
2023-01-02T02:01:21.984Z,19.01
2023-01-02T02:03:51.884Z,18.98
2023-01-02T02:06:22.084Z,19.04
2023-01-02T02:08:56.738Z,19.03
2023-01-02T02:11:25.717Z,19.07
2023-01-02T02:13:59.537Z,19.10
2023-01-02T02:16:39.720Z,19.08
2023-01-02T02:19:44.421Z,19.10
2023-01-02T02:22:36.595Z,19.15
2023-01-02T02:25:24.679Z,19.12
2023-01-02T02:28:28.317Z,19.10
2023-01-02T02:31:04.351Z,19.07
2023-01-02T02:33:43.010Z,19.17
2023-01-02T02:36:20.688Z,19.10
2023-01-02T02:39:01.583Z,19.12
2023-01-02T02:41:37.525Z,19.12
2023-01-02T02:44:17.989Z,19.18
2023-01-02T02:46:55.194Z,19.21
2023-01-02T02:49:37.710Z,19.22
2023-01-02T02:52:12.828Z,19.16
2023-01-02T02:54:46.639Z,19.21
2023-01-02T02:57:16.772Z,19.20
2023-01-02T02:59:45.291Z,19.20
2023-01-02T03:02:17.381Z,19.21
2023-01-02T03:04:48.795Z,19.24
2023-01-02T03:07:23.238Z,19.23
2023-01-02T03:09:58.727Z,19.24
2023-01-02T03:12:37.434Z,19.29
2023-01-02T03:15:15.662Z,19.34
2023-01-02T03:18:01.324Z,19.27
2023-01-02T03:20:35.652Z,19.32
2023-01-02T03:23:09.483Z,19.32
2023-01-02T03:25:39.095Z,19.31
2023-01-02T03:28:11.048Z,19.35
2023-01-02T03:30:42.310Z,19.31
2023-01-02T03:33:15.170Z,19.32
2023-01-02T03:35:48.296Z,19.33
2023-01-02T03:38:23.478Z,19.33
2023-01-02T03:40:58.492Z,19.27
2023-01-02T03:43:33.352Z,19.28
2023-01-02T03:46:09.113Z,19.34
2023-01-02T03:48:44.672Z,19.27
2023-01-02T03:51:16.996Z,19.24
2023-01-02T03:53:46.351Z,19.27
2023-01-02T03:56:23.476Z,19.26
2023-01-02T03:58:57.752Z,19.21
2023-01-02T04:01:38.478Z,19.23
2023-01-02T04:04:17.249Z,19.22
2023-01-02T04:06:52.566Z,19.22
2023-01-02T04:09:25.554Z,19.26
2023-01-02T04:11:59.785Z,19.21
2023-01-02T04:14:33.022Z,19.17
2023-01-02T04:17:04.557Z,19.13
2023-01-02T04:19:39.330Z,19.17
2023-01-02T04:22:13.743Z,19.12
2023-01-02T04:24:47.582Z,19.11
2023-01-02T04:27:22.348Z,19.11
2023-01-02T04:29:52.772Z,19.11
2023-01-02T04:32:25.652Z,19.10
2023-01-02T04:34:56.633Z,19.12
2023-01-02T04:37:30.101Z,19.14
2023-01-02T04:40:04.218Z,19.20
2023-01-02T04:42:37.304Z,19.19
2023-01-02T04:45:06.607Z,19.15
2023-01-02T04:47:34.799Z,19.12
2023-01-02T04:50:04.699Z,19.15
2023-01-02T04:52:36.905Z,19.15
2023-01-02T04:55:08.220Z,19.12
2023-01-02T04:57:37.462Z,19.12
2023-01-02T05:00:08.480Z,19.11
2023-01-02T05:02:37.375Z,19.11
2023-01-02T05:05:09.330Z,19.12
2023-01-02T05:07:38.442Z,19.09
2023-01-02T05:10:09.374Z,19.09
2023-01-02T05:12:39.121Z,19.07
2023-01-02T05:15:09.566Z,19.07
2023-01-02T05:17:38.441Z,19.06
2023-01-02T05:20:11.415Z,19.00
2023-01-02T05:22:58.007Z,18.98
2023-01-02T05:25:26.697Z,18.99
2023-01-02T05:27:55.480Z,19.02
2023-01-02T05:30:24.129Z,19.08
2023-01-02T05:32:52.332Z,19.04
2023-01-02T05:35:30.344Z,19.11
2023-01-02T05:38:00.274Z,19.07
2023-01-02T05:40:28.906Z,19.10
2023-01-02T05:43:00.418Z,19.12
2023-01-02T05:45:29.210Z,19.13
2023-01-02T05:47:57.334Z,19.13
2023-01-02T05:50:28.657Z,19.11
2023-01-02T05:52:57.328Z,19.13
2023-01-02T05:55:25.407Z,19.17
2023-01-02T05:57:56.091Z,19.13
2023-01-02T06:00:24.485Z,19.08
2023-01-02T06:02:54.785Z,19.03
2023-01-02T06:05:23.072Z,18.93
2023-01-02T06:07:52.647Z,18.95
2023-01-02T06:10:21.122Z,18.88
2023-01-02T06:12:49.259Z,18.90
2023-01-02T06:15:17.688Z,18.94
2023-01-02T06:17:46.207Z,18.98
2023-01-02T06:20:14.358Z,18.99
2023-01-02T06:22:42.651Z,19.02
2023-01-02T06:25:12.396Z,18.99
2023-01-02T06:27:40.591Z,18.99
2023-01-02T06:30:10.070Z,18.97
2023-01-02T06:32:38.744Z,18.97
2023-01-02T06:35:07.732Z,19.03
2023-01-02T06:37:35.742Z,18.99
2023-01-02T06:40:04.180Z,19.05
2023-01-02T06:42:33.738Z,19.05
2023-01-02T06:45:01.784Z,19.04
2023-01-02T06:47:30.728Z,19.04
2023-01-02T06:49:58.781Z,19.07
2023-01-02T06:52:28.730Z,18.98
2023-01-02T06:54:57.085Z,19.02
2023-01-02T06:57:25.252Z,19.06
2023-01-02T06:59:54.637Z,19.09
2023-01-02T07:02:23.500Z,19.05
2023-01-02T07:04:51.754Z,19.11
2023-01-02T07:07:20.001Z,19.14
2023-01-02T07:09:51.380Z,19.10
2023-01-02T07:12:19.766Z,19.10
2023-01-02T07:14:47.824Z,19.13
2023-01-02T07:17:17.585Z,19.13
2023-01-02T07:19:53.098Z,19.16
2023-01-02T07:22:25.964Z,19.15
2023-01-02T07:24:54.578Z,19.15
2023-01-02T07:27:22.820Z,19.15
2023-01-02T07:29:51.340Z,19.16
2023-01-02T07:32:27.152Z,19.13
2023-01-02T07:34:56.173Z,19.10
2023-01-02T07:37:24.359Z,19.05
2023-01-02T07:39:52.601Z,19.00
2023-01-02T07:42:21.061Z,18.94
2023-01-02T07:44:49.598Z,18.92
2023-01-02T07:47:17.941Z,18.91
2023-01-02T07:49:48.405Z,18.91
2023-01-02T07:52:16.807Z,18.92
2023-01-02T07:54:44.977Z,18.97
2023-01-02T07:57:13.223Z,18.97
2023-01-02T07:59:45.054Z,19.02
2023-01-02T08:02:13.733Z,19.01
2023-01-02T08:04:42.711Z,19.03
2023-01-02T08:07:12.436Z,19.05
2023-01-02T08:09:40.561Z,19.07
2023-01-02T08:12:09.119Z,19.07
2023-01-02T08:14:37.945Z,19.10
2023-01-02T08:17:06.079Z,19.12
2023-01-02T08:19:34.786Z,19.13
2023-01-02T08:22:02.856Z,19.18
2023-01-02T08:24:32.510Z,19.19
2023-01-02T08:27:00.911Z,19.24
2023-01-02T08:29:29.233Z,19.24
2023-01-02T08:32:00.145Z,19.30
2023-01-02T08:34:28.831Z,19.30
2023-01-02T08:36:56.912Z,19.32
2023-01-02T08:39:25.003Z,19.43
2023-01-02T08:41:54.736Z,19.55
2023-01-02T08:44:22.912Z,19.60
2023-01-02T08:46:51.198Z,19.64
2023-01-02T08:49:19.888Z,19.69
2023-01-02T08:51:47.925Z,19.73
2023-01-02T08:54:16.190Z,19.74
2023-01-02T08:56:44.519Z,19.78
2023-01-02T08:59:14.075Z,19.78
2023-01-02T09:01:42.698Z,19.74
2023-01-02T09:04:13.322Z,19.79
2023-01-02T09:06:43.584Z,19.83
2023-01-02T09:09:13.320Z,19.88
2023-01-02T09:11:45.257Z,19.95
2023-01-02T09:14:15.192Z,19.95
2023-01-02T09:16:43.763Z,19.99
2023-01-02T09:19:11.874Z,20.00
2023-01-02T09:21:40.223Z,20.06
2023-01-02T09:24:09.386Z,20.09
2023-01-02T09:26:41.690Z,20.10
2023-01-02T09:29:10.406Z,20.08
2023-01-02T09:31:40.499Z,20.06
2023-01-02T09:34:08.919Z,20.06
2023-01-02T09:36:37.426Z,20.10
2023-01-02T09:39:14.930Z,20.17
2023-01-02T09:41:45.460Z,20.19
2023-01-02T09:44:18.933Z,20.23
2023-01-02T09:46:51.769Z,20.30
2023-01-02T09:49:23.045Z,20.27
2023-01-02T09:51:54.490Z,20.27
2023-01-02T09:54:29.330Z,20.32
2023-01-02T09:57:15.833Z,20.38
2023-01-02T09:59:53.037Z,20.47
2023-01-02T10:02:38.329Z,20.58
2023-01-02T10:05:23.878Z,20.71
2023-01-02T10:07:59.109Z,20.85
2023-01-02T10:10:34.222Z,20.88
2023-01-02T10:13:10.835Z,21.02
2023-01-02T10:15:40.933Z,21.14
2023-01-02T10:18:18.821Z,21.23
2023-01-02T10:20:54.250Z,21.37
2023-01-02T10:23:26.682Z,21.58
2023-01-02T10:25:58.629Z,21.78
2023-01-02T10:28:34.087Z,21.78
2023-01-02T10:31:07.965Z,21.72
2023-01-02T10:33:48.218Z,21.57
2023-01-02T10:36:26.450Z,21.56
2023-01-02T10:38:57.902Z,21.60
2023-01-02T10:41:26.444Z,21.65
2023-01-02T10:43:57.272Z,21.76
2023-01-02T10:46:30.307Z,21.85
2023-01-02T10:49:00.086Z,22.09
2023-01-02T10:51:28.886Z,22.37
2023-01-02T10:54:02.088Z,22.55
2023-01-02T10:56:33.262Z,22.72
2023-01-02T10:59:02.382Z,22.83
2023-01-02T11:01:31.562Z,22.85
2023-01-02T11:04:22.454Z,22.80
2023-01-02T11:06:55.161Z,22.74
2023-01-02T11:09:27.011Z,22.70
2023-01-02T11:11:58.864Z,22.60
2023-01-02T11:14:32.585Z,22.62
2023-01-02T11:17:05.956Z,22.48
2023-01-02T11:19:41.022Z,22.30
2023-01-02T11:22:09.951Z,22.32
2023-01-02T11:24:57.777Z,22.30
2023-01-02T11:27:32.353Z,22.17
2023-01-02T11:30:00.919Z,22.10
2023-01-02T11:32:37.490Z,22.00
2023-01-02T11:35:35.179Z,21.96
2023-01-02T11:38:03.583Z,21.96
2023-01-02T11:40:33.392Z,22.04
2023-01-02T11:43:23.658Z,22.03
2023-01-02T11:45:53.902Z,22.00
2023-01-02T11:48:24.538Z,21.98
2023-01-02T11:50:54.737Z,21.88
2023-01-02T11:53:28.117Z,22.05
2023-01-02T11:56:01.526Z,22.11
2023-01-02T11:58:35.598Z,22.22
2023-01-02T12:01:10.890Z,22.32
2023-01-02T12:03:40.809Z,22.30
2023-01-02T12:06:17.980Z,22.35
2023-01-02T12:08:58.940Z,22.40
2023-01-02T12:11:40.834Z,22.28
2023-01-02T12:14:16.822Z,22.27
2023-01-02T12:16:53.451Z,22.31
2023-01-02T12:19:51.944Z,22.39
2023-01-02T12:22:41.921Z,22.43
2023-01-02T12:25:39.168Z,22.51
2023-01-02T12:28:25.563Z,22.55
2023-01-02T12:31:01.530Z,22.61
2023-01-02T12:33:46.796Z,22.63
2023-01-02T12:36:26.295Z,22.71
2023-01-02T12:39:12.628Z,22.83
2023-01-02T12:42:00.951Z,22.88
2023-01-02T12:44:48.265Z,22.85
2023-01-02T12:47:38.041Z,22.62
2023-01-02T12:50:33.333Z,22.63
2023-01-02T12:53:15.741Z,22.59
2023-01-02T12:55:54.561Z,22.65
2023-01-02T12:58:34.612Z,22.55
2023-01-02T13:01:13.305Z,22.50
2023-01-02T13:03:53.401Z,22.58
2023-01-02T13:06:43.328Z,22.37
2023-01-02T13:09:22.957Z,22.45
2023-01-02T13:12:00.747Z,22.42
2023-01-02T13:14:40.930Z,22.35
2023-01-02T13:17:28.476Z,22.38
2023-01-02T13:20:03.865Z,22.09
2023-01-02T13:22:41.630Z,22.14
2023-01-02T13:25:15.229Z,22.20
2023-01-02T13:27:46.163Z,22.14
2023-01-02T13:30:39.545Z,22.11
2023-01-02T13:33:21.414Z,21.98
2023-01-02T13:35:50.207Z,21.63
2023-01-02T13:38:20.132Z,21.26
2023-01-02T13:40:56.262Z,21.45
2023-01-02T13:43:28.477Z,21.30
2023-01-02T13:45:57.419Z,21.51
2023-01-02T13:48:33.332Z,21.45
2023-01-02T13:51:03.822Z,21.35
2023-01-02T13:53:38.767Z,21.47
2023-01-02T13:56:13.333Z,21.35
2023-01-02T13:58:48.951Z,21.41
2023-01-02T14:01:52.267Z,21.08
2023-01-02T14:04:39.322Z,20.98
2023-01-02T14:07:44.988Z,20.94
2023-01-02T14:10:40.472Z,20.90
2023-01-02T14:13:17.581Z,20.76
2023-01-02T14:16:22.098Z,21.18
2023-01-02T14:19:22.592Z,20.95
2023-01-02T14:21:55.658Z,20.43
2023-01-02T14:24:30.183Z,20.48
2023-01-02T14:27:02.142Z,20.60
2023-01-02T14:29:31.544Z,20.55
2023-01-02T14:32:08.023Z,20.81
2023-01-02T14:34:45.878Z,20.58
2023-01-02T14:37:28.665Z,20.43
2023-01-02T14:39:56.933Z,20.63
2023-01-02T14:42:49.986Z,20.33
2023-01-02T14:45:23.873Z,20.41
2023-01-02T14:47:59.341Z,20.59
2023-01-02T14:50:31.787Z,20.31
2023-01-02T14:53:06.449Z,20.01
2023-01-02T14:55:42.046Z,20.42
2023-01-02T14:58:21.415Z,20.28
2023-01-02T15:00:50.383Z,20.51
2023-01-02T15:03:29.469Z,20.17
2023-01-02T15:06:00.674Z,20.29
2023-01-02T15:08:36.679Z,20.15
2023-01-02T15:11:33.281Z,20.10
2023-01-02T15:14:04.035Z,19.87
2023-01-02T15:16:40.905Z,20.06
2023-01-02T15:19:18.289Z,20.10
2023-01-02T15:21:47.313Z,19.99
2023-01-02T15:24:19.777Z,19.73
2023-01-02T15:26:47.831Z,20.02
2023-01-02T15:29:28.716Z,19.97
2023-01-02T15:31:58.799Z,19.95
2023-01-02T15:34:31.075Z,19.83
2023-01-02T15:37:03.033Z,19.77
2023-01-02T15:39:35.042Z,19.80
2023-01-02T15:42:11.673Z,19.65
2023-01-02T15:44:58.814Z,19.69
2023-01-02T15:47:29.010Z,19.75
2023-01-02T15:49:59.061Z,19.81
2023-01-02T15:52:31.271Z,19.90
2023-01-02T15:55:00.232Z,19.65
2023-01-02T15:57:32.005Z,19.67
2023-01-02T16:00:01.543Z,19.54
2023-01-02T16:02:35.342Z,19.78
2023-01-02T16:05:12.095Z,19.37
2023-01-02T16:07:40.848Z,19.58
2023-01-02T16:10:17.419Z,19.53
2023-01-02T16:12:51.489Z,19.48
2023-01-02T16:15:24.222Z,19.36
2023-01-02T16:17:54.929Z,19.44
2023-01-02T16:20:26.629Z,19.31
2023-01-02T16:22:58.718Z,19.40
2023-01-02T16:25:30.109Z,19.58
2023-01-02T16:28:02.430Z,19.56
2023-01-02T16:30:38.209Z,19.55
2023-01-02T16:33:21.849Z,19.61
2023-01-02T16:36:00.582Z,19.40
2023-01-02T16:38:29.971Z,19.30
2023-01-02T16:41:03.065Z,19.24
2023-01-02T16:43:35.358Z,19.21
2023-01-02T16:46:11.811Z,18.77
2023-01-02T16:48:41.853Z,18.19
2023-01-02T16:51:14.668Z,18.61
2023-01-02T16:53:45.495Z,18.61
2023-01-02T16:56:14.821Z,18.65
2023-01-02T16:58:45.771Z,18.63
2023-01-02T17:01:15.744Z,18.66
2023-01-02T17:03:45.287Z,18.45
2023-01-02T17:06:18.290Z,18.57
2023-01-02T17:08:46.373Z,18.45
2023-01-02T17:11:16.551Z,18.60
2023-01-02T17:13:44.798Z,18.57
2023-01-02T17:16:13.073Z,18.54
2023-01-02T17:18:41.640Z,18.48
2023-01-02T17:21:09.890Z,18.50
2023-01-02T17:23:39.994Z,18.53
2023-01-02T17:26:08.365Z,18.54
2023-01-02T17:28:36.722Z,18.37
2023-01-02T17:31:05.296Z,18.25
2023-01-02T17:33:33.588Z,18.42
2023-01-02T17:36:01.862Z,18.37
2023-01-02T17:38:30.055Z,18.32
2023-01-02T17:41:02.148Z,18.25
2023-01-02T17:43:30.304Z,18.28
2023-01-02T17:45:58.773Z,18.25
2023-01-02T17:48:26.796Z,18.16
2023-01-02T17:50:54.910Z,18.19
2023-01-02T17:53:23.159Z,18.20
2023-01-02T17:55:52.540Z,18.13
2023-01-02T17:58:42.571Z,18.09
2023-01-02T18:01:15.417Z,17.90
2023-01-02T18:03:46.553Z,17.64
2023-01-02T18:06:15.462Z,17.64
2023-01-02T18:08:47.020Z,17.45
2023-01-02T18:11:17.777Z,17.54
2023-01-02T18:13:49.628Z,17.50
2023-01-02T18:16:21.100Z,17.59
2023-01-02T18:18:50.713Z,17.60
2023-01-02T18:21:23.443Z,17.50
2023-01-02T18:23:57.213Z,17.35
2023-01-02T18:26:26.589Z,17.47
2023-01-02T18:29:04.234Z,17.48
2023-01-02T18:31:41.334Z,17.50
2023-01-02T18:34:46.429Z,17.39
2023-01-02T18:37:16.467Z,17.42
2023-01-02T18:39:48.435Z,17.37
2023-01-02T18:42:19.993Z,17.32
2023-01-02T18:44:50.301Z,17.30
2023-01-02T18:47:27.598Z,17.25
2023-01-02T18:49:58.801Z,17.22
2023-01-02T18:52:29.861Z,17.12
2023-01-02T18:55:01.644Z,17.00
2023-01-02T18:57:34.213Z,16.83
2023-01-02T19:00:20.651Z,16.85
2023-01-02T19:02:54.900Z,16.80
2023-01-02T19:05:26.568Z,16.84
2023-01-02T19:08:05.921Z,16.79
2023-01-02T19:10:38.820Z,16.83
2023-01-02T19:13:16.540Z,16.81
2023-01-02T19:15:48.888Z,16.85
2023-01-02T19:18:23.438Z,16.82
2023-01-02T19:20:57.467Z,16.84
2023-01-02T19:23:30.652Z,16.89
2023-01-02T19:26:08.311Z,16.80
2023-01-02T19:28:37.348Z,16.79
2023-01-02T19:31:14.474Z,16.73
2023-01-02T19:33:44.404Z,16.76
2023-01-02T19:36:17.180Z,16.77
2023-01-02T19:38:46.382Z,16.77
2023-01-02T19:41:14.725Z,16.84
2023-01-02T19:43:43.057Z,16.71
2023-01-02T19:46:12.516Z,16.76
2023-01-02T19:48:40.859Z,16.76
2023-01-02T19:51:08.846Z,16.81
2023-01-02T19:53:36.832Z,16.84
2023-01-02T19:56:05.326Z,16.82
2023-01-02T19:58:33.255Z,16.79
2023-01-02T20:01:01.229Z,16.74
2023-01-02T20:03:30.865Z,16.70
2023-01-02T20:05:58.842Z,16.73
2023-01-02T20:08:27.870Z,16.71
2023-01-02T20:10:56.043Z,16.68
2023-01-02T20:13:23.920Z,16.55
2023-01-02T20:15:51.852Z,16.62
2023-01-02T20:18:20.036Z,16.62
2023-01-02T20:20:49.275Z,16.66
2023-01-02T20:23:17.318Z,16.62
2023-01-02T20:25:45.513Z,16.60
2023-01-02T20:28:13.586Z,16.64
2023-01-02T20:30:41.527Z,16.71
2023-01-02T20:33:10.027Z,16.71
2023-01-02T20:35:38.115Z,16.69
2023-01-02T20:38:07.426Z,16.73
2023-01-02T20:40:35.682Z,16.69
2023-01-02T20:43:03.605Z,16.71
2023-01-02T20:45:31.646Z,16.65
2023-01-02T20:47:59.906Z,16.64
2023-01-02T20:50:27.811Z,16.58
2023-01-02T20:52:57.024Z,16.49
2023-01-02T20:55:26.975Z,16.54
2023-01-02T20:57:55.216Z,16.43
2023-01-02T21:00:23.525Z,16.50
2023-01-02T21:02:52.295Z,16.35
2023-01-02T21:05:20.549Z,16.23
2023-01-02T21:07:48.733Z,16.24
2023-01-02T21:10:19.577Z,16.24
2023-01-02T21:13:06.615Z,16.27
2023-01-02T21:15:45.967Z,16.29
2023-01-02T21:18:16.646Z,16.25
2023-01-02T21:20:46.751Z,16.22
2023-01-02T21:23:15.888Z,15.98
2023-01-02T21:25:44.476Z,16.12
2023-01-02T21:28:15.915Z,16.12
2023-01-02T21:30:44.899Z,16.00
2023-01-02T21:33:14.187Z,16.12
2023-01-02T21:35:42.967Z,15.99
2023-01-02T21:38:11.724Z,16.08
2023-01-02T21:40:40.288Z,16.01
2023-01-02T21:43:08.690Z,15.96
2023-01-02T21:45:38.550Z,16.05
2023-01-02T21:48:07.622Z,15.81
2023-01-02T21:50:35.903Z,15.75
2023-01-02T21:53:03.971Z,15.88
2023-01-02T21:55:32.290Z,15.89
2023-01-02T21:58:12.986Z,15.96
2023-01-02T22:00:44.085Z,15.93
2023-01-02T22:03:12.676Z,15.90
2023-01-02T22:05:41.181Z,15.78
2023-01-02T22:08:09.158Z,15.66
2023-01-02T22:10:37.969Z,15.73
2023-01-02T22:13:05.955Z,15.74
2023-01-02T22:15:33.954Z,15.74
2023-01-02T22:18:03.648Z,15.70
2023-01-02T22:20:32.223Z,15.70
2023-01-02T22:23:00.319Z,15.70
2023-01-02T22:25:28.701Z,15.54
2023-01-02T22:27:56.806Z,15.49
2023-01-02T22:30:33.439Z,15.50
2023-01-02T22:33:04.539Z,15.49
2023-01-02T22:35:33.723Z,15.45
2023-01-02T22:38:01.739Z,15.37
2023-01-02T22:40:30.117Z,15.14
2023-01-02T22:43:03.356Z,15.16
2023-01-02T22:45:36.602Z,15.13
2023-01-02T22:48:14.690Z,15.04
2023-01-02T22:50:45.500Z,14.94
2023-01-02T22:53:20.428Z,14.88
2023-01-02T22:55:49.872Z,14.80
2023-01-02T22:58:18.446Z,14.78
2023-01-02T23:00:47.854Z,14.69
2023-01-02T23:03:18.417Z,14.65
2023-01-02T23:05:46.764Z,14.64
2023-01-02T23:08:14.781Z,14.58
2023-01-02T23:10:43.214Z,14.56
2023-01-02T23:13:11.301Z,14.48
2023-01-02T23:15:59.767Z,14.43
2023-01-02T23:18:53.044Z,14.41
2023-01-02T23:21:23.098Z,14.41
2023-01-02T23:23:52.394Z,14.46
2023-01-02T23:26:22.108Z,14.39
2023-01-02T23:29:07.553Z,14.50
2023-01-02T23:31:37.930Z,14.45
2023-01-02T23:34:07.866Z,14.46
2023-01-02T23:36:36.735Z,14.54
2023-01-02T23:39:06.254Z,14.60
2023-01-02T23:41:35.597Z,14.61
2023-01-02T23:44:04.253Z,14.66
2023-01-02T23:46:32.615Z,14.50
2023-01-02T23:49:01.532Z,14.64
2023-01-02T23:51:31.740Z,14.66
2023-01-02T23:54:00.690Z,14.68
2023-01-02T23:56:32.718Z,14.68
2023-01-02T23:59:02.580Z,14.71
